sensor_id;sensor_type;location;lat;lon;timestamp;P1;durP1;ratioP1;P2;durP2;ratioP2
28245;SDS011;15510;52.512;13.300;2023-05-10T00:00:15;4.70;;;4.10;;
28245;SDS011;15510;52.512;13.300;2023-05-10T00:02:42;4.40;;;3.80;;
28245;SDS011;15510;52.512;13.300;2023-05-10T00:05:08;7.73;;;4.40;;
28245;SDS011;15510;52.512;13.300;2023-05-10T00:07:34;6.40;;;3.90;;
28245;SDS011;15510;52.512;13.300;2023-05-10T00:10:00;7.63;;;4.10;;
28245;SDS011;15510;52.512;13.300;2023-05-10T00:12:26;8.07;;;4.10;;
28245;SDS011;15510;52.512;13.300;2023-05-10T00:14:52;4.77;;;4.20;;
28245;SDS011;15510;52.512;13.300;2023-05-10T00:17:17;7.37;;;4.20;;
28245;SDS011;15510;52.512;13.300;2023-05-10T00:19:43;5.37;;;3.97;;
28245;SDS011;15510;52.512;13.300;2023-05-10T00:22:09;4.43;;;4.03;;
28245;SDS011;15510;52.512;13.300;2023-05-10T00:24:35;6.27;;;4.83;;
28245;SDS011;15510;52.512;13.300;2023-05-10T00:27:01;4.63;;;4.10;;
28245;SDS011;15510;52.512;13.300;2023-05-10T00:29:29;7.83;;;4.10;;
28245;SDS011;15510;52.512;13.300;2023-05-10T00:31:55;7.20;;;4.23;;
28245;SDS011;15510;52.512;13.300;2023-05-10T00:34:21;6.37;;;4.17;;
28245;SDS011;15510;52.512;13.300;2023-05-10T00:36:47;5.80;;;4.47;;
28245;SDS011;15510;52.512;13.300;2023-05-10T00:39:12;6.33;;;4.10;;
28245;SDS011;15510;52.512;13.300;2023-05-10T00:41:41;9.37;;;4.93;;
28245;SDS011;15510;52.512;13.300;2023-05-10T00:44:07;5.13;;;4.23;;
28245;SDS011;15510;52.512;13.300;2023-05-10T00:46:33;4.73;;;4.07;;
28245;SDS011;15510;52.512;13.300;2023-05-10T00:48:59;4.93;;;4.40;;
28245;SDS011;15510;52.512;13.300;2023-05-10T00:51:25;16.20;;;4.87;;
28245;SDS011;15510;52.512;13.300;2023-05-10T00:53:51;6.47;;;4.07;;
28245;SDS011;15510;52.512;13.300;2023-05-10T00:56:18;7.73;;;4.67;;
28245;SDS011;15510;52.512;13.300;2023-05-10T00:58:45;5.83;;;4.47;;
28245;SDS011;15510;52.512;13.300;2023-05-10T01:01:11;4.43;;;4.03;;
28245;SDS011;15510;52.512;13.300;2023-05-10T01:03:38;10.37;;;4.33;;
28245;SDS011;15510;52.512;13.300;2023-05-10T01:06:05;5.67;;;4.37;;
28245;SDS011;15510;52.512;13.300;2023-05-10T01:08:31;6.33;;;4.63;;
28245;SDS011;15510;52.512;13.300;2023-05-10T01:10:57;4.30;;;3.90;;
28245;SDS011;15510;52.512;13.300;2023-05-10T01:13:33;8.40;;;4.70;;
28245;SDS011;15510;52.512;13.300;2023-05-10T01:16:01;7.50;;;5.30;;
28245;SDS011;15510;52.512;13.300;2023-05-10T01:18:29;5.17;;;4.67;;
28245;SDS011;15510;52.512;13.300;2023-05-10T01:32:35;5.20;;;4.70;;
28245;SDS011;15510;52.512;13.300;2023-05-10T01:35:10;5.77;;;4.87;;
28245;SDS011;15510;52.512;13.300;2023-05-10T01:43:42;7.43;;;5.50;;
28245;SDS011;15510;52.512;13.300;2023-05-10T01:46:31;13.43;;;4.80;;
28245;SDS011;15510;52.512;13.300;2023-05-10T01:49:00;9.13;;;4.90;;
28245;SDS011;15510;52.512;13.300;2023-05-10T01:51:31;5.57;;;5.07;;
28245;SDS011;15510;52.512;13.300;2023-05-10T01:54:12;6.17;;;4.70;;
28245;SDS011;15510;52.512;13.300;2023-05-10T01:56:40;8.43;;;4.73;;
28245;SDS011;15510;52.512;13.300;2023-05-10T01:59:15;7.40;;;4.53;;
28245;SDS011;15510;52.512;13.300;2023-05-10T02:01:43;12.83;;;5.43;;
28245;SDS011;15510;52.512;13.300;2023-05-10T02:04:11;6.70;;;5.23;;
28245;SDS011;15510;52.512;13.300;2023-05-10T02:06:42;5.53;;;5.00;;
28245;SDS011;15510;52.512;13.300;2023-05-10T02:09:10;8.47;;;4.90;;
28245;SDS011;15510;52.512;13.300;2023-05-10T02:11:38;6.97;;;5.03;;
28245;SDS011;15510;52.512;13.300;2023-05-10T02:14:05;5.03;;;4.30;;
28245;SDS011;15510;52.512;13.300;2023-05-10T02:16:34;10.33;;;4.60;;
28245;SDS011;15510;52.512;13.300;2023-05-10T02:19:01;5.87;;;4.97;;
28245;SDS011;15510;52.512;13.300;2023-05-10T02:21:28;6.10;;;4.80;;
28245;SDS011;15510;52.512;13.300;2023-05-10T02:23:56;6.33;;;4.83;;
28245;SDS011;15510;52.512;13.300;2023-05-10T02:26:23;6.03;;;4.97;;
28245;SDS011;15510;52.512;13.300;2023-05-10T02:28:51;7.23;;;4.73;;
28245;SDS011;15510;52.512;13.300;2023-05-10T02:31:20;7.30;;;4.83;;
28245;SDS011;15510;52.512;13.300;2023-05-10T02:33:47;4.87;;;4.37;;
28245;SDS011;15510;52.512;13.300;2023-05-10T02:36:14;5.47;;;4.80;;
28245;SDS011;15510;52.512;13.300;2023-05-10T02:38:41;5.27;;;4.77;;
28245;SDS011;15510;52.512;13.300;2023-05-10T02:41:08;8.07;;;4.60;;
28245;SDS011;15510;52.512;13.300;2023-05-10T02:43:35;5.23;;;4.03;;
28245;SDS011;15510;52.512;13.300;2023-05-10T02:46:03;6.07;;;4.83;;
28245;SDS011;15510;52.512;13.300;2023-05-10T02:48:28;9.17;;;4.50;;
28245;SDS011;15510;52.512;13.300;2023-05-10T02:50:55;5.90;;;5.13;;
28245;SDS011;15510;52.512;13.300;2023-05-10T02:53:30;5.77;;;4.37;;
28245;SDS011;15510;52.512;13.300;2023-05-10T02:55:59;5.47;;;4.30;;
28245;SDS011;15510;52.512;13.300;2023-05-10T02:58:29;5.77;;;4.67;;
28245;SDS011;15510;52.512;13.300;2023-05-10T03:00:55;5.07;;;4.57;;
28245;SDS011;15510;52.512;13.300;2023-05-10T03:03:20;5.17;;;4.67;;
28245;SDS011;15510;52.512;13.300;2023-05-10T03:05:48;7.97;;;4.37;;
28245;SDS011;15510;52.512;13.300;2023-05-10T03:08:14;5.33;;;4.27;;
28245;SDS011;15510;52.512;13.300;2023-05-10T03:16:22;7.33;;;4.80;;
28245;SDS011;15510;52.512;13.300;2023-05-10T03:21:31;6.17;;;4.47;;
28245;SDS011;15510;52.512;13.300;2023-05-10T03:23:59;8.10;;;4.23;;
28245;SDS011;15510;52.512;13.300;2023-05-10T03:26:33;7.67;;;4.93;;
28245;SDS011;15510;52.512;13.300;2023-05-10T03:29:08;5.13;;;4.10;;
28245;SDS011;15510;52.512;13.300;2023-05-10T03:31:35;6.83;;;4.77;;
28245;SDS011;15510;52.512;13.300;2023-05-10T03:34:01;5.43;;;4.20;;
28245;SDS011;15510;52.512;13.300;2023-05-10T03:36:26;8.80;;;4.50;;
28245;SDS011;15510;52.512;13.300;2023-05-10T03:38:53;5.97;;;4.10;;
28245;SDS011;15510;52.512;13.300;2023-05-10T03:41:20;6.33;;;4.23;;
28245;SDS011;15510;52.512;13.300;2023-05-10T03:43:46;8.30;;;4.53;;
28245;SDS011;15510;52.512;13.300;2023-05-10T03:46:12;4.87;;;4.27;;
28245;SDS011;15510;52.512;13.300;2023-05-10T03:48:38;6.47;;;4.40;;
28245;SDS011;15510;52.512;13.300;2023-05-10T03:51:04;5.10;;;3.90;;
28245;SDS011;15510;52.512;13.300;2023-05-10T03:53:30;5.40;;;4.37;;
28245;SDS011;15510;52.512;13.300;2023-05-10T03:55:56;7.40;;;4.13;;
28245;SDS011;15510;52.512;13.300;2023-05-10T03:58:22;8.00;;;4.33;;
28245;SDS011;15510;52.512;13.300;2023-05-10T04:00:48;5.63;;;4.30;;
28245;SDS011;15510;52.512;13.300;2023-05-10T04:03:14;6.07;;;4.00;;
28245;SDS011;15510;52.512;13.300;2023-05-10T04:05:39;4.40;;;3.87;;
28245;SDS011;15510;52.512;13.300;2023-05-10T04:08:05;5.90;;;4.30;;
28245;SDS011;15510;52.512;13.300;2023-05-10T04:10:31;11.37;;;4.43;;
28245;SDS011;15510;52.512;13.300;2023-05-10T04:12:57;6.03;;;4.37;;
28245;SDS011;15510;52.512;13.300;2023-05-10T04:15:23;7.10;;;4.47;;
28245;SDS011;15510;52.512;13.300;2023-05-10T04:17:49;5.67;;;3.77;;
28245;SDS011;15510;52.512;13.300;2023-05-10T04:20:15;6.03;;;4.27;;
28245;SDS011;15510;52.512;13.300;2023-05-10T04:22:41;6.37;;;4.77;;
28245;SDS011;15510;52.512;13.300;2023-05-10T04:25:07;4.33;;;3.93;;
28245;SDS011;15510;52.512;13.300;2023-05-10T04:27:33;8.83;;;3.87;;
28245;SDS011;15510;52.512;13.300;2023-05-10T04:29:59;4.20;;;3.80;;
28245;SDS011;15510;52.512;13.300;2023-05-10T04:32:24;5.30;;;3.43;;
28245;SDS011;15510;52.512;13.300;2023-05-10T04:34:50;5.27;;;3.67;;
28245;SDS011;15510;52.512;13.300;2023-05-10T04:37:16;5.83;;;4.37;;
28245;SDS011;15510;52.512;13.300;2023-05-10T04:39:42;6.80;;;4.03;;
28245;SDS011;15510;52.512;13.300;2023-05-10T04:42:08;5.30;;;4.17;;
28245;SDS011;15510;52.512;13.300;2023-05-10T04:44:34;8.33;;;4.03;;
28245;SDS011;15510;52.512;13.300;2023-05-10T04:47:00;5.50;;;4.00;;
28245;SDS011;15510;52.512;13.300;2023-05-10T04:49:27;4.63;;;3.93;;
28245;SDS011;15510;52.512;13.300;2023-05-10T04:51:53;5.53;;;3.87;;
28245;SDS011;15510;52.512;13.300;2023-05-10T04:54:19;6.10;;;3.97;;
28245;SDS011;15510;52.512;13.300;2023-05-10T04:56:45;4.73;;;4.00;;
28245;SDS011;15510;52.512;13.300;2023-05-10T04:59:10;5.83;;;4.13;;
28245;SDS011;15510;52.512;13.300;2023-05-10T05:01:36;7.10;;;3.93;;
28245;SDS011;15510;52.512;13.300;2023-05-10T05:04:02;7.17;;;3.80;;
28245;SDS011;15510;52.512;13.300;2023-05-10T05:06:28;7.63;;;4.00;;
28245;SDS011;15510;52.512;13.300;2023-05-10T05:08:53;3.57;;;3.27;;
28245;SDS011;15510;52.512;13.300;2023-05-10T05:11:19;7.77;;;3.93;;
28245;SDS011;15510;52.512;13.300;2023-05-10T05:13:46;4.63;;;3.97;;
28245;SDS011;15510;52.512;13.300;2023-05-10T05:16:11;4.83;;;4.33;;
28245;SDS011;15510;52.512;13.300;2023-05-10T05:18:37;7.73;;;4.13;;
28245;SDS011;15510;52.512;13.300;2023-05-10T05:21:03;7.67;;;4.57;;
28245;SDS011;15510;52.512;13.300;2023-05-10T05:23:39;9.57;;;4.30;;
28245;SDS011;15510;52.512;13.300;2023-05-10T05:26:05;4.87;;;3.47;;
28245;SDS011;15510;52.512;13.300;2023-05-10T05:28:30;7.57;;;3.83;;
28245;SDS011;15510;52.512;13.300;2023-05-10T05:30:59;4.50;;;3.50;;
28245;SDS011;15510;52.512;13.300;2023-05-10T05:33:24;4.60;;;3.30;;
28245;SDS011;15510;52.512;13.300;2023-05-10T05:35:50;6.90;;;3.47;;
28245;SDS011;15510;52.512;13.300;2023-05-10T05:38:16;5.60;;;3.33;;
28245;SDS011;15510;52.512;13.300;2023-05-10T05:40:42;6.03;;;3.43;;
28245;SDS011;15510;52.512;13.300;2023-05-10T05:43:08;6.50;;;3.07;;
28245;SDS011;15510;52.512;13.300;2023-05-10T05:45:34;3.50;;;2.73;;
28245;SDS011;15510;52.512;13.300;2023-05-10T05:47:59;5.97;;;3.47;;
28245;SDS011;15510;52.512;13.300;2023-05-10T05:50:25;5.50;;;2.77;;
28245;SDS011;15510;52.512;13.300;2023-05-10T05:52:51;5.47;;;3.43;;
28245;SDS011;15510;52.512;13.300;2023-05-10T05:55:17;4.27;;;2.87;;
28245;SDS011;15510;52.512;13.300;2023-05-10T05:57:42;11.30;;;3.00;;
28245;SDS011;15510;52.512;13.300;2023-05-10T06:00:08;5.43;;;3.17;;
28245;SDS011;15510;52.512;13.300;2023-05-10T06:02:40;9.03;;;2.97;;
28245;SDS011;15510;52.512;13.300;2023-05-10T06:05:06;6.13;;;3.13;;
28245;SDS011;15510;52.512;13.300;2023-05-10T06:07:32;8.60;;;3.57;;
28245;SDS011;15510;52.512;13.300;2023-05-10T06:09:58;3.10;;;2.77;;
28245;SDS011;15510;52.512;13.300;2023-05-10T06:12:24;4.57;;;2.87;;
28245;SDS011;15510;52.512;13.300;2023-05-10T06:14:49;6.23;;;2.53;;
28245;SDS011;15510;52.512;13.300;2023-05-10T06:17:15;6.53;;;2.60;;
28245;SDS011;15510;52.512;13.300;2023-05-10T06:19:41;3.17;;;2.70;;
28245;SDS011;15510;52.512;13.300;2023-05-10T06:22:06;9.63;;;3.23;;
28245;SDS011;15510;52.512;13.300;2023-05-10T06:24:32;5.43;;;2.97;;
28245;SDS011;15510;52.512;13.300;2023-05-10T06:26:58;5.63;;;2.97;;
28245;SDS011;15510;52.512;13.300;2023-05-10T06:29:25;5.13;;;2.60;;
28245;SDS011;15510;52.512;13.300;2023-05-10T06:31:51;4.20;;;2.40;;
28245;SDS011;15510;52.512;13.300;2023-05-10T06:34:17;7.37;;;3.07;;
28245;SDS011;15510;52.512;13.300;2023-05-10T06:36:42;5.60;;;2.37;;
28245;SDS011;15510;52.512;13.300;2023-05-10T06:39:08;8.03;;;3.20;;
28245;SDS011;15510;52.512;13.300;2023-05-10T06:41:34;7.47;;;2.77;;
28245;SDS011;15510;52.512;13.300;2023-05-10T06:43:59;6.20;;;3.00;;
28245;SDS011;15510;52.512;13.300;2023-05-10T06:46:25;9.40;;;2.37;;
28245;SDS011;15510;52.512;13.300;2023-05-10T06:48:51;6.55;;;3.10;;
28245;SDS011;15510;52.512;13.300;2023-05-10T06:51:16;3.50;;;2.10;;
28245;SDS011;15510;52.512;13.300;2023-05-10T06:53:42;6.17;;;2.73;;
28245;SDS011;15510;52.512;13.300;2023-05-10T06:56:08;3.50;;;2.40;;
28245;SDS011;15510;52.512;13.300;2023-05-10T06:58:34;5.27;;;2.00;;
28245;SDS011;15510;52.512;13.300;2023-05-10T07:01:03;3.83;;;2.45;;
28245;SDS011;15510;52.512;13.300;2023-05-10T07:06:05;6.55;;;2.72;;
28245;SDS011;15510;52.512;13.300;2023-05-10T07:08:34;2.88;;;2.58;;
28245;SDS011;15510;52.512;13.300;2023-05-10T07:11:01;2.55;;;1.95;;
28245;SDS011;15510;52.512;13.300;2023-05-10T07:13:32;2.85;;;2.28;;
28245;SDS011;15510;52.512;13.300;2023-05-10T07:15:59;3.22;;;2.20;;
28245;SDS011;15510;52.512;13.300;2023-05-10T07:18:27;5.97;;;2.42;;
28245;SDS011;15510;52.512;13.300;2023-05-10T07:20:53;4.13;;;2.10;;
28245;SDS011;15510;52.512;13.300;2023-05-10T07:23:18;4.72;;;2.05;;
28245;SDS011;15510;52.512;13.300;2023-05-10T07:25:45;4.32;;;2.00;;
28245;SDS011;15510;52.512;13.300;2023-05-10T07:28:12;3.92;;;2.38;;
28245;SDS011;15510;52.512;13.300;2023-05-10T07:30:38;6.05;;;2.17;;
28245;SDS011;15510;52.512;13.300;2023-05-10T07:33:08;2.97;;;2.30;;
28245;SDS011;15510;52.512;13.300;2023-05-10T07:35:34;11.55;;;2.15;;
28245;SDS011;15510;52.512;13.300;2023-05-10T07:38:01;2.40;;;2.10;;
28245;SDS011;15510;52.512;13.300;2023-05-10T07:40:27;3.60;;;2.15;;
28245;SDS011;15510;52.512;13.300;2023-05-10T07:42:54;4.50;;;2.00;;
28245;SDS011;15510;52.512;13.300;2023-05-10T07:45:20;6.47;;;2.35;;
28245;SDS011;15510;52.512;13.300;2023-05-10T07:47:46;6.80;;;2.05;;
28245;SDS011;15510;52.512;13.300;2023-05-10T07:50:12;6.72;;;2.13;;
28245;SDS011;15510;52.512;13.300;2023-05-10T07:52:38;3.22;;;1.92;;
28245;SDS011;15510;52.512;13.300;2023-05-10T07:55:04;7.97;;;2.10;;
28245;SDS011;15510;52.512;13.300;2023-05-10T07:57:30;3.42;;;2.20;;
28245;SDS011;15510;52.512;13.300;2023-05-10T07:59:56;5.05;;;2.10;;
28245;SDS011;15510;52.512;13.300;2023-05-10T08:02:22;6.25;;;2.33;;
28245;SDS011;15510;52.512;13.300;2023-05-10T08:04:47;3.22;;;2.08;;
28245;SDS011;15510;52.512;13.300;2023-05-10T08:07:13;3.63;;;2.22;;
28245;SDS011;15510;52.512;13.300;2023-05-10T08:09:39;5.57;;;2.58;;
28245;SDS011;15510;52.512;13.300;2023-05-10T08:12:05;2.40;;;2.20;;
28245;SDS011;15510;52.512;13.300;2023-05-10T08:14:31;6.68;;;2.83;;
28245;SDS011;15510;52.512;13.300;2023-05-10T08:16:58;6.53;;;2.40;;
28245;SDS011;15510;52.512;13.300;2023-05-10T08:19:24;5.80;;;1.88;;
28245;SDS011;15510;52.512;13.300;2023-05-10T08:21:53;4.22;;;1.90;;
28245;SDS011;15510;52.512;13.300;2023-05-10T08:24:21;3.70;;;1.90;;
28245;SDS011;15510;52.512;13.300;2023-05-10T08:26:47;3.58;;;2.13;;
28245;SDS011;15510;52.512;13.300;2023-05-10T08:29:13;3.53;;;2.08;;
28245;SDS011;15510;52.512;13.300;2023-05-10T08:31:42;5.38;;;1.90;;
28245;SDS011;15510;52.512;13.300;2023-05-10T08:34:07;6.50;;;2.10;;
28245;SDS011;15510;52.512;13.300;2023-05-10T08:36:33;2.63;;;1.98;;
28245;SDS011;15510;52.512;13.300;2023-05-10T08:38:59;4.53;;;2.65;;
28245;SDS011;15510;52.512;13.300;2023-05-10T08:41:25;4.07;;;2.20;;
28245;SDS011;15510;52.512;13.300;2023-05-10T08:43:53;4.03;;;2.40;;
28245;SDS011;15510;52.512;13.300;2023-05-10T08:46:20;3.80;;;2.17;;
28245;SDS011;15510;52.512;13.300;2023-05-10T08:48:49;4.60;;;2.13;;
28245;SDS011;15510;52.512;13.300;2023-05-10T08:51:22;4.00;;;2.00;;
28245;SDS011;15510;52.512;13.300;2023-05-10T08:53:51;2.80;;;1.95;;
28245;SDS011;15510;52.512;13.300;2023-05-10T08:56:18;2.10;;;1.65;;
28245;SDS011;15510;52.512;13.300;2023-05-10T08:58:45;2.60;;;1.90;;
28245;SDS011;15510;52.512;13.300;2023-05-10T09:01:12;5.05;;;2.30;;
28245;SDS011;15510;52.512;13.300;2023-05-10T09:03:40;5.72;;;1.95;;
28245;SDS011;15510;52.512;13.300;2023-05-10T09:06:07;3.08;;;2.13;;
28245;SDS011;15510;52.512;13.300;2023-05-10T09:08:33;4.57;;;1.90;;
28245;SDS011;15510;52.512;13.300;2023-05-10T09:10:59;4.22;;;2.03;;
28245;SDS011;15510;52.512;13.300;2023-05-10T09:13:26;4.57;;;2.08;;
28245;SDS011;15510;52.512;13.300;2023-05-10T09:15:53;3.60;;;2.13;;
28245;SDS011;15510;52.512;13.300;2023-05-10T09:18:19;3.22;;;2.80;;
28245;SDS011;15510;52.512;13.300;2023-05-10T09:20:45;3.90;;;1.92;;
28245;SDS011;15510;52.512;13.300;2023-05-10T09:23:11;4.38;;;2.10;;
28245;SDS011;15510;52.512;13.300;2023-05-10T09:25:38;5.95;;;2.08;;
28245;SDS011;15510;52.512;13.300;2023-05-10T09:28:06;4.60;;;1.88;;
28245;SDS011;15510;52.512;13.300;2023-05-10T09:30:35;4.47;;;1.90;;
28245;SDS011;15510;52.512;13.300;2023-05-10T09:33:01;4.05;;;2.42;;
28245;SDS011;15510;52.512;13.300;2023-05-10T09:35:30;4.85;;;2.53;;
28245;SDS011;15510;52.512;13.300;2023-05-10T09:38:00;3.53;;;2.85;;
28245;SDS011;15510;52.512;13.300;2023-05-10T09:40:28;2.92;;;1.80;;
28245;SDS011;15510;52.512;13.300;2023-05-10T09:42:56;4.68;;;2.58;;
28245;SDS011;15510;52.512;13.300;2023-05-10T09:45:23;3.17;;;1.90;;
28245;SDS011;15510;52.512;13.300;2023-05-10T09:47:52;7.72;;;2.10;;
28245;SDS011;15510;52.512;13.300;2023-05-10T09:50:18;4.50;;;1.83;;
28245;SDS011;15510;52.512;13.300;2023-05-10T09:55:14;4.88;;;2.08;;
28245;SDS011;15510;52.512;13.300;2023-05-10T09:57:41;3.03;;;2.30;;
28245;SDS011;15510;52.512;13.300;2023-05-10T10:00:07;11.23;;;2.60;;
28245;SDS011;15510;52.512;13.300;2023-05-10T10:02:40;4.15;;;1.95;;
28245;SDS011;15510;52.512;13.300;2023-05-10T10:05:06;4.80;;;1.70;;
28245;SDS011;15510;52.512;13.300;2023-05-10T10:07:33;6.32;;;2.10;;
28245;SDS011;15510;52.512;13.300;2023-05-10T10:10:00;3.47;;;1.77;;
28245;SDS011;15510;52.512;13.300;2023-05-10T10:12:26;3.95;;;1.90;;
28245;SDS011;15510;52.512;13.300;2023-05-10T10:14:51;2.50;;;1.95;;
28245;SDS011;15510;52.512;13.300;2023-05-10T10:17:18;4.38;;;2.10;;
28245;SDS011;15510;52.512;13.300;2023-05-10T10:19:45;3.20;;;2.20;;
28245;SDS011;15510;52.512;13.300;2023-05-10T10:22:13;3.63;;;2.22;;
28245;SDS011;15510;52.512;13.300;2023-05-10T10:24:39;4.90;;;2.20;;
28245;SDS011;15510;52.512;13.300;2023-05-10T10:27:12;6.20;;;2.10;;
28245;SDS011;15510;52.512;13.300;2023-05-10T10:35:29;5.53;;;2.00;;
28245;SDS011;15510;52.512;13.300;2023-05-10T10:37:56;2.45;;;2.03;;
28245;SDS011;15510;52.512;13.300;2023-05-10T10:42:50;3.10;;;1.80;;
28245;SDS011;15510;52.512;13.300;2023-05-10T10:45:16;2.00;;;1.80;;
28245;SDS011;15510;52.512;13.300;2023-05-10T10:47:42;5.93;;;2.10;;
28245;SDS011;15510;52.512;13.300;2023-05-10T10:50:08;6.15;;;1.98;;
28245;SDS011;15510;52.512;13.300;2023-05-10T10:55:06;5.63;;;2.63;;
28245;SDS011;15510;52.512;13.300;2023-05-10T10:57:49;4.75;;;1.83;;
28245;SDS011;15510;52.512;13.300;2023-05-10T11:00:24;4.75;;;2.15;;
28245;SDS011;15510;52.512;13.300;2023-05-10T11:13:42;3.53;;;1.63;;
28245;SDS011;15510;52.512;13.300;2023-05-10T11:16:19;4.97;;;1.60;;
28245;SDS011;15510;52.512;13.300;2023-05-10T11:21:29;3.97;;;1.58;;
28245;SDS011;15510;52.512;13.300;2023-05-10T11:23:56;5.75;;;1.58;;
28245;SDS011;15510;52.512;13.300;2023-05-10T11:26:30;2.53;;;1.60;;
28245;SDS011;15510;52.512;13.300;2023-05-10T11:28:57;3.55;;;1.67;;
28245;SDS011;15510;52.512;13.300;2023-05-10T11:31:26;5.72;;;1.48;;
28245;SDS011;15510;52.512;13.300;2023-05-10T11:33:53;4.07;;;1.90;;
28245;SDS011;15510;52.512;13.300;2023-05-10T11:36:20;4.35;;;1.65;;
28245;SDS011;15510;52.512;13.300;2023-05-10T11:38:48;14.32;;;2.78;;
28245;SDS011;15510;52.512;13.300;2023-05-10T11:41:15;10.75;;;2.83;;
28245;SDS011;15510;52.512;13.300;2023-05-10T11:43:42;14.35;;;2.53;;
28245;SDS011;15510;52.512;13.300;2023-05-10T11:46:11;6.78;;;1.83;;
28245;SDS011;15510;52.512;13.300;2023-05-10T11:48:38;2.78;;;1.33;;
28245;SDS011;15510;52.512;13.300;2023-05-10T11:51:06;2.35;;;1.20;;
28245;SDS011;15510;52.512;13.300;2023-05-10T11:53:36;4.38;;;1.48;;
28245;SDS011;15510;52.512;13.300;2023-05-10T11:56:12;7.13;;;3.05;;
28245;SDS011;15510;52.512;13.300;2023-05-10T11:58:38;3.40;;;1.13;;
28245;SDS011;15510;52.512;13.300;2023-05-10T12:01:05;1.95;;;1.27;;
28245;SDS011;15510;52.512;13.300;2023-05-10T12:03:32;7.05;;;1.42;;
28245;SDS011;15510;52.512;13.300;2023-05-10T12:05:59;1.60;;;1.42;;
28245;SDS011;15510;52.512;13.300;2023-05-10T12:08:26;3.15;;;1.27;;
28245;SDS011;15510;52.512;13.300;2023-05-10T12:10:53;2.22;;;1.10;;
28245;SDS011;15510;52.512;13.300;2023-05-10T12:13:29;2.42;;;1.10;;
28245;SDS011;15510;52.512;13.300;2023-05-10T12:15:57;1.40;;;1.13;;
28245;SDS011;15510;52.512;13.300;2023-05-10T12:18:23;4.93;;;1.48;;
28245;SDS011;15510;52.512;13.300;2023-05-10T12:20:52;3.58;;;1.30;;
28245;SDS011;15510;52.512;13.300;2023-05-10T12:23:19;2.97;;;1.27;;
28245;SDS011;15510;52.512;13.300;2023-05-10T12:25:47;5.03;;;1.70;;
28245;SDS011;15510;52.512;13.300;2023-05-10T12:28:13;6.90;;;1.52;;
28245;SDS011;15510;52.512;13.300;2023-05-10T12:30:39;6.82;;;1.40;;
28245;SDS011;15510;52.512;13.300;2023-05-10T12:33:09;2.97;;;1.65;;
28245;SDS011;15510;52.512;13.300;2023-05-10T12:35:49;3.95;;;1.30;;
28245;SDS011;15510;52.512;13.300;2023-05-10T12:41:01;3.65;;;1.10;;
28245;SDS011;15510;52.512;13.300;2023-05-10T12:43:31;2.92;;;1.27;;
28245;SDS011;15510;52.512;13.300;2023-05-10T12:45:58;5.03;;;1.10;;
28245;SDS011;15510;52.512;13.300;2023-05-10T12:48:37;1.40;;;1.00;;
28245;SDS011;15510;52.512;13.300;2023-05-10T12:51:05;1.88;;;1.25;;
28245;SDS011;15510;52.512;13.300;2023-05-10T12:53:34;3.42;;;1.88;;
28245;SDS011;15510;52.512;13.300;2023-05-10T12:56:01;4.53;;;1.00;;
28245;SDS011;15510;52.512;13.300;2023-05-10T12:58:27;2.17;;;1.02;;
28245;SDS011;15510;52.512;13.300;2023-05-10T13:00:53;1.58;;;0.95;;
28245;SDS011;15510;52.512;13.300;2023-05-10T13:03:19;1.52;;;1.13;;
28245;SDS011;15510;52.512;13.300;2023-05-10T13:05:45;6.32;;;1.20;;
28245;SDS011;15510;52.512;13.300;2023-05-10T13:08:11;6.07;;;1.27;;
28245;SDS011;15510;52.512;13.300;2023-05-10T13:10:36;3.95;;;1.08;;
28245;SDS011;15510;52.512;13.300;2023-05-10T13:13:02;5.00;;;1.25;;
28245;SDS011;15510;52.512;13.300;2023-05-10T13:15:28;1.45;;;1.23;;
28245;SDS011;15510;52.512;13.300;2023-05-10T13:17:54;3.15;;;1.10;;
28245;SDS011;15510;52.512;13.300;2023-05-10T13:20:20;2.88;;;0.80;;
28245;SDS011;15510;52.512;13.300;2023-05-10T13:22:46;2.25;;;0.90;;
28245;SDS011;15510;52.512;13.300;2023-05-10T13:25:11;5.55;;;1.10;;
28245;SDS011;15510;52.512;13.300;2023-05-10T13:27:39;2.92;;;1.10;;
28245;SDS011;15510;52.512;13.300;2023-05-10T13:30:05;3.30;;;1.10;;
28245;SDS011;15510;52.512;13.300;2023-05-10T13:32:32;7.15;;;2.28;;
28245;SDS011;15510;52.512;13.300;2023-05-10T13:34:58;3.60;;;1.65;;
28245;SDS011;15510;52.512;13.300;2023-05-10T13:37:23;5.18;;;1.90;;
28245;SDS011;15510;52.512;13.300;2023-05-10T13:39:49;2.20;;;1.30;;
28245;SDS011;15510;52.512;13.300;2023-05-10T13:42:15;5.40;;;1.52;;
28245;SDS011;15510;52.512;13.300;2023-05-10T13:44:41;4.07;;;1.58;;
28245;SDS011;15510;52.512;13.300;2023-05-10T13:47:06;3.08;;;1.02;;
28245;SDS011;15510;52.512;13.300;2023-05-10T13:49:32;1.52;;;0.90;;
28245;SDS011;15510;52.512;13.300;2023-05-10T13:51:59;3.20;;;1.17;;
28245;SDS011;15510;52.512;13.300;2023-05-10T13:54:31;2.67;;;1.00;;
28245;SDS011;15510;52.512;13.300;2023-05-10T13:56:58;6.43;;;1.70;;
28245;SDS011;15510;52.512;13.300;2023-05-10T13:59:25;7.40;;;2.25;;
28245;SDS011;15510;52.512;13.300;2023-05-10T14:01:50;4.18;;;1.63;;
28245;SDS011;15510;52.512;13.300;2023-05-10T14:04:16;1.98;;;1.75;;
28245;SDS011;15510;52.512;13.300;2023-05-10T14:06:42;3.20;;;1.42;;
28245;SDS011;15510;52.512;13.300;2023-05-10T14:09:07;4.53;;;1.70;;
28245;SDS011;15510;52.512;13.300;2023-05-10T14:11:33;5.55;;;2.00;;
28245;SDS011;15510;52.512;13.300;2023-05-10T14:13:59;3.08;;;1.73;;
28245;SDS011;15510;52.512;13.300;2023-05-10T14:16:25;4.10;;;1.63;;
28245;SDS011;15510;52.512;13.300;2023-05-10T14:18:52;3.58;;;1.63;;
28245;SDS011;15510;52.512;13.300;2023-05-10T14:21:17;5.25;;;1.23;;
28245;SDS011;15510;52.512;13.300;2023-05-10T14:23:43;34.90;;;8.35;;
28245;SDS011;15510;52.512;13.300;2023-05-10T14:26:09;2.22;;;1.70;;
28245;SDS011;15510;52.512;13.300;2023-05-10T14:28:34;1.85;;;1.30;;
28245;SDS011;15510;52.512;13.300;2023-05-10T14:31:00;4.00;;;1.40;;
28245;SDS011;15510;52.512;13.300;2023-05-10T14:33:26;3.85;;;1.35;;
28245;SDS011;15510;52.512;13.300;2023-05-10T14:35:53;4.05;;;1.90;;
28245;SDS011;15510;52.512;13.300;2023-05-10T14:38:19;5.93;;;2.85;;
28245;SDS011;15510;52.512;13.300;2023-05-10T14:40:45;14.63;;;5.03;;
28245;SDS011;15510;52.512;13.300;2023-05-10T14:43:11;6.75;;;1.98;;
28245;SDS011;15510;52.512;13.300;2023-05-10T14:45:37;2.55;;;1.83;;
28245;SDS011;15510;52.512;13.300;2023-05-10T14:48:02;3.20;;;1.48;;
28245;SDS011;15510;52.512;13.300;2023-05-10T14:50:29;4.78;;;1.95;;
28245;SDS011;15510;52.512;13.300;2023-05-10T14:52:56;8.07;;;3.22;;
28245;SDS011;15510;52.512;13.300;2023-05-10T14:55:22;17.73;;;3.17;;
28245;SDS011;15510;52.512;13.300;2023-05-10T14:57:48;5.88;;;1.75;;
28245;SDS011;15510;52.512;13.300;2023-05-10T15:00:15;4.78;;;2.00;;
28245;SDS011;15510;52.512;13.300;2023-05-10T15:02:43;4.30;;;3.53;;
28245;SDS011;15510;52.512;13.300;2023-05-10T15:05:09;6.93;;;2.08;;
28245;SDS011;15510;52.512;13.300;2023-05-10T15:07:35;5.38;;;2.15;;
28245;SDS011;15510;52.512;13.300;2023-05-10T15:10:00;3.00;;;1.55;;
28245;SDS011;15510;52.512;13.300;2023-05-10T15:12:26;5.18;;;2.00;;
28245;SDS011;15510;52.512;13.300;2023-05-10T15:14:52;5.20;;;2.78;;
28245;SDS011;15510;52.512;13.300;2023-05-10T15:17:17;5.18;;;1.60;;
28245;SDS011;15510;52.512;13.300;2023-05-10T15:19:43;4.28;;;2.08;;
28245;SDS011;15510;52.512;13.300;2023-05-10T15:22:09;3.60;;;2.03;;
28245;SDS011;15510;52.512;13.300;2023-05-10T15:24:35;3.38;;;1.60;;
28245;SDS011;15510;52.512;13.300;2023-05-10T15:27:01;2.15;;;1.27;;
28245;SDS011;15510;52.512;13.300;2023-05-10T15:29:26;10.27;;;5.80;;